Time;durP1;ratioP1;P1;durP2;ratioP2;P2;SDS_P1;SDS_P2;PMS_P1;PMS_P2;Temp;Humidity;BMP_temperature;BMP_pressure;BME280_temperature;BME280_humidity;BME280_pressure;Samples;Min_cycle;Max_cycle;Signal;HPM_P1;HPM_P2
2022/03/02 00:01:44;;;;;;;17.67;9.67;;;0.50;99.90;;;;;;5228788;28;20296;-50
2022/03/02 00:04:15;;;;;;;21.63;10.37;;;0.50;99.90;;;;;;5229108;28;20585;-48
2022/03/02 00:06:45;;;;;;;22.07;11.67;;;0.50;99.90;;;;;;5229596;28;20174;-47
2022/03/02 00:09:16;;;;;;;22.20;11.63;;;0.50;99.90;;;;;;5230482;28;20635;-49
2022/03/02 00:11:47;;;;;;;26.23;11.57;;;0.50;99.90;;;;;;5223057;28;20876;-48
2022/03/02 00:14:17;;;;;;;18.93;10.17;;;0.50;99.90;;;;;;5228653;28;20240;-49
2022/03/02 00:16:48;;;;;;;20.67;11.23;;;0.40;99.90;;;;;;5238398;28;20249;-48
2022/03/02 00:19:18;;;;;;;23.90;10.83;;;0.50;99.90;;;;;;5222368;28;20188;-47
2022/03/02 00:21:49;;;;;;;24.80;11.70;;;0.40;99.90;;;;;;5221507;28;20272;-48
2022/03/02 00:24:20;;;;;;;25.77;11.63;;;0.30;99.90;;;;;;5228795;28;20596;-48
2022/03/02 00:26:50;;;;;;;22.70;11.47;;;0.30;99.90;;;;;;5231014;28;20695;-47
2022/03/02 00:29:21;;;;;;;21.20;11.37;;;0.30;99.90;;;;;;5229723;28;20526;-48
2022/03/02 00:31:52;;;;;;;22.37;12.97;;;0.30;99.90;;;;;;5229961;28;20241;-48
2022/03/02 00:34:22;;;;;;;26.50;13.23;;;0.30;99.90;;;;;;5230537;28;20175;-47
2022/03/02 00:36:53;;;;;;;24.80;12.30;;;0.30;99.90;;;;;;5229250;28;20661;-47
2022/03/02 00:39:23;;;;;;;34.57;13.87;;;0.30;99.90;;;;;;5228206;28;20190;-51
2022/03/02 00:41:54;;;;;;;22.33;12.97;;;0.30;99.90;;;;;;5208819;28;20217;-47
2022/03/02 00:44:25;;;;;;;22.23;12.80;;;0.30;99.90;;;;;;5222874;28;20291;-49
2022/03/02 00:46:56;;;;;;;26.83;11.70;;;0.30;99.90;;;;;;5225375;28;20183;-48
2022/03/02 00:49:27;;;;;;;24.80;11.30;;;0.30;99.90;;;;;;5223339;28;20190;-47
2022/03/02 00:51:59;;;;;;;22.50;11.60;;;0.30;99.90;;;;;;5224535;28;20200;-48
2022/03/02 00:54:30;;;;;;;16.80;10.93;;;0.30;99.90;;;;;;5228282;28;20432;-47
2022/03/02 00:57:01;;;;;;;18.83;10.97;;;0.30;99.90;;;;;;5227773;28;20414;-47
2022/03/02 00:59:32;;;;;;;25.83;11.10;;;0.30;99.90;;;;;;5216475;28;20440;-47
2022/03/02 01:02:02;;;;;;;30.07;11.63;;;0.30;99.90;;;;;;5227137;28;20203;-47
2022/03/02 01:04:33;;;;;;;26.67;12.43;;;0.30;99.90;;;;;;5226061;28;20655;-48
2022/03/02 01:07:04;;;;;;;18.97;12.40;;;0.20;99.90;;;;;;5228419;28;20197;-47
2022/03/02 01:09:34;;;;;;;23.30;12.60;;;0.20;99.90;;;;;;5226036;28;20175;-48
2022/03/02 01:12:05;;;;;;;28.27;13.50;;;0.20;99.90;;;;;;5223956;28;20664;-48
2022/03/02 01:14:35;;;;;;;23.40;11.67;;;0.30;99.90;;;;;;5226495;28;20281;-48
2022/03/02 01:17:06;;;;;;;24.80;12.50;;;0.20;99.90;;;;;;5218801;28;20194;-48
2022/03/02 01:19:38;;;;;;;23.03;11.90;;;0.20;99.90;;;;;;5227720;28;20187;-48
2022/03/02 01:22:09;;;;;;;20.73;11.33;;;0.20;99.90;;;;;;5225973;28;20203;-48
2022/03/02 01:24:40;;;;;;;22.97;11.47;;;0.20;99.90;;;;;;5228423;28;20410;-47
2022/03/02 01:27:11;;;;;;;25.83;13.17;;;0.30;99.90;;;;;;5227743;28;20207;-46
2022/03/02 01:29:42;;;;;;;24.93;13.10;;;0.20;99.90;;;;;;5219910;28;20437;-47
2022/03/02 01:32:13;;;;;;;23.10;11.50;;;0.20;99.90;;;;;;5228011;28;20659;-48
2022/03/02 01:34:43;;;;;;;23.53;10.77;;;0.20;99.90;;;;;;5221392;28;20563;-47
2022/03/02 01:37:14;;;;;;;18.90;11.90;;;0.20;99.90;;;;;;5222911;28;20953;-46
2022/03/02 01:39:44;;;;;;;23.15;11.10;;;0.30;99.90;;;;;;5214910;28;20229;-47
2022/03/02 01:42:15;;;;;;;17.83;11.50;;;0.20;99.90;;;;;;5219436;28;20183;-46
2022/03/02 01:44:46;;;;;;;41.30;13.17;;;0.20;99.90;;;;;;5210318;28;20191;-47
2022/03/02 01:47:16;;;;;;;21.00;11.83;;;0.30;99.90;;;;;;5227025;28;20296;-47
2022/03/02 01:49:47;;;;;;;19.83;11.33;;;0.20;99.90;;;;;;5225611;28;20183;-49
2022/03/02 01:52:17;;;;;;;19.70;12.10;;;0.20;99.90;;;;;;5226316;28;20186;-48
2022/03/02 01:54:48;;;;;;;20.80;12.43;;;0.20;99.90;;;;;;5210522;28;20702;-48
2022/03/02 01:57:19;;;;;;;23.87;12.20;;;0.20;99.90;;;;;;5233010;28;20183;-48
2022/03/02 01:59:50;;;;;;;19.27;10.73;;;0.20;99.90;;;;;;5224508;28;20191;-47
2022/03/02 02:02:20;;;;;;;22.83;12.10;;;0.10;99.90;;;;;;5227999;28;20544;-49
2022/03/02 02:04:53;;;;;;;29.63;12.73;;;0.10;99.90;;;;;;5226202;28;20552;-47
2022/03/02 02:07:25;;;;;;;18.60;10.60;;;0.00;99.90;;;;;;5227604;28;20186;-47
2022/03/02 02:09:57;;;;;;;26.60;13.00;;;0.00;99.90;;;;;;5225722;28;20495;-49
2022/03/02 02:12:27;;;;;;;20.03;11.30;;;0.00;99.90;;;;;;5230424;28;20907;-46
2022/03/02 02:14:59;;;;;;;22.73;12.23;;;0.00;99.90;;;;;;5230491;28;20488;-48
2022/03/02 02:17:30;;;;;;;24.67;12.03;;;0.00;99.90;;;;;;5226188;28;20175;-47
2022/03/02 02:20:00;;;;;;;31.03;13.20;;;0.00;99.90;;;;;;5222617;28;20445;-47
2022/03/02 02:22:31;;;;;;;22.63;11.77;;;0.00;99.90;;;;;;5227327;28;20573;-47
2022/03/02 02:25:02;;;;;;;31.00;13.57;;;0.00;99.90;;;;;;5227836;28;20266;-47
2022/03/02 02:27:33;;;;;;;22.10;11.37;;;0.00;99.90;;;;;;5226191;28;20178;-49
2022/03/02 02:30:05;;;;;;;20.50;11.50;;;0.00;99.90;;;;;;5225089;28;20203;-48
2022/03/02 02:32:37;;;;;;;28.17;12.77;;;-0.10;99.90;;;;;;5225780;28;20421;-48
2022/03/02 02:35:09;;;;;;;21.80;11.43;;;0.00;99.90;;;;;;5223477;28;20545;-48
2022/03/02 02:37:40;;;;;;;24.63;12.50;;;0.00;99.90;;;;;;5227152;28;20436;-47
2022/03/02 02:40:15;;;;;;;20.63;11.63;;;0.00;99.90;;;;;;5215000;28;20461;-47
2022/03/02 02:42:48;;;;;;;25.17;12.57;;;0.00;99.90;;;;;;5221213;28;20175;-48
2022/03/02 02:45:22;;;;;;;35.27;12.00;;;0.00;99.90;;;;;;5227199;28;20414;-47
2022/03/02 02:47:55;;;;;;;21.67;10.97;;;0.00;99.90;;;;;;5226393;28;20439;-48
2022/03/02 02:50:29;;;;;;;21.60;11.33;;;0.00;99.90;;;;;;5226157;28;20503;-47
2022/03/02 02:53:09;;;;;;;22.60;12.23;;;0.10;99.90;;;;;;5226854;28;20481;-47
2022/03/02 02:55:42;;;;;;;18.80;10.70;;;0.10;99.90;;;;;;5232258;28;20465;-47
2022/03/02 02:58:14;;;;;;;21.20;11.83;;;0.00;99.90;;;;;;5221951;28;20439;-49
2022/03/02 03:00:46;;;;;;;22.63;12.27;;;0.10;99.90;;;;;;5235038;28;20627;-49
2022/03/02 03:03:18;;;;;;;23.67;11.60;;;0.00;99.90;;;;;;5226609;28;20445;-47
2022/03/02 03:05:51;;;;;;;21.50;11.53;;;0.00;99.90;;;;;;5225572;28;20766;-48
2022/03/02 03:08:23;;;;;;;22.30;11.93;;;0.10;99.90;;;;;;5224191;28;20750;-48
2022/03/02 03:10:53;;;;;;;26.30;11.97;;;0.10;99.90;;;;;;5223870;28;21007;-48
2022/03/02 03:13:24;;;;;;;25.23;11.77;;;0.10;99.90;;;;;;5224631;28;20434;-47
2022/03/02 03:15:55;;;;;;;22.90;11.73;;;0.10;99.90;;;;;;5218761;28;20179;-48
2022/03/02 03:18:25;;;;;;;22.47;11.60;;;0.10;99.90;;;;;;5208774;28;20424;-48
2022/03/02 03:20:56;;;;;;;18.97;10.87;;;0.10;99.90;;;;;;5225036;28;20294;-48
2022/03/02 03:23:28;;;;;;;20.00;12.33;;;0.10;99.90;;;;;;5216938;28;20217;-48
2022/03/02 03:25:59;;;;;;;22.00;11.53;;;0.10;99.90;;;;;;5224331;28;21000;-48
2022/03/02 03:28:29;;;;;;;24.03;11.87;;;0.20;99.90;;;;;;5224545;28;20429;-47
2022/03/02 03:31:00;;;;;;;25.97;11.77;;;0.10;99.90;;;;;;5225158;28;20205;-47
2022/03/02 03:33:31;;;;;;;24.17;11.70;;;0.10;99.90;;;;;;5224948;28;20183;-47
2022/03/02 03:36:02;;;;;;;22.63;12.10;;;0.20;99.90;;;;;;5222342;28;20208;-49
2022/03/02 03:38:33;;;;;;;25.47;11.80;;;0.20;99.90;;;;;;5221080;28;20246;-48
2022/03/02 03:41:03;;;;;;;25.70;12.50;;;0.10;99.90;;;;;;5223079;28;20473;-47
2022/03/02 03:43:34;;;;;;;26.10;12.23;;;0.10;99.90;;;;;;5221038;28;20674;-49
2022/03/02 03:46:05;;;;;;;24.33;11.67;;;0.10;99.90;;;;;;5221302;28;20174;-49
2022/03/02 03:48:35;;;;;;;21.13;12.57;;;0.10;99.90;;;;;;5226210;28;20305;-48
2022/03/02 03:51:06;;;;;;;26.40;12.30;;;0.10;99.90;;;;;;5222932;28;20449;-47
2022/03/02 03:53:37;;;;;;;24.53;12.63;;;0.10;99.90;;;;;;5222931;28;20183;-48
2022/03/02 03:56:08;;;;;;;21.20;11.70;;;0.10;99.90;;;;;;5207055;28;20486;-48
2022/03/02 03:58:39;;;;;;;24.00;13.37;;;0.10;99.90;;;;;;5228962;28;20183;-47
2022/03/02 04:01:10;;;;;;;23.20;12.80;;;0.10;99.90;;;;;;5224065;28;20214;-47
2022/03/02 04:03:41;;;;;;;23.20;13.10;;;0.20;99.90;;;;;;5218433;28;20429;-47
2022/03/02 04:06:11;;;;;;;18.17;11.50;;;0.20;99.90;;;;;;5225429;28;20198;-48
2022/03/02 04:08:42;;;;;;;24.60;13.00;;;0.20;99.90;;;;;;5224630;28;20650;-47
2022/03/02 04:11:13;;;;;;;35.17;12.77;;;0.20;99.90;;;;;;5224783;28;20228;-48
2022/03/02 04:13:43;;;;;;;23.13;12.10;;;0.20;99.90;;;;;;5225298;28;20890;-48
2022/03/02 04:16:14;;;;;;;23.27;12.90;;;0.30;99.90;;;;;;5222297;28;20279;-48
2022/03/02 04:18:44;;;;;;;22.70;11.93;;;0.20;99.90;;;;;;5227299;28;20196;-47
2022/03/02 04:21:15;;;;;;;20.40;12.50;;;0.20;99.90;;;;;;5228474;28;20217;-47
2022/03/02 04:23:46;;;;;;;20.43;12.13;;;0.30;99.90;;;;;;5227858;28;20274;-46
2022/03/02 04:26:17;;;;;;;28.80;13.80;;;0.20;99.90;;;;;;5228449;28;20433;-48
2022/03/02 04:28:48;;;;;;;25.23;14.20;;;0.20;99.90;;;;;;5226066;28;20433;-48
2022/03/02 04:31:18;;;;;;;29.77;13.40;;;0.20;99.90;;;;;;5229151;28;20968;-47
2022/03/02 04:33:49;;;;;;;23.70;13.13;;;0.20;99.90;;;;;;5229813;28;20187;-48
2022/03/02 04:36:19;;;;;;;28.60;13.33;;;0.20;99.90;;;;;;5228587;28;20185;-48
2022/03/02 04:38:50;;;;;;;23.20;13.50;;;0.20;99.90;;;;;;5223485;28;20186;-48
2022/03/02 04:41:20;;;;;;;27.40;12.73;;;0.20;99.90;;;;;;5226559;28;20229;-48
2022/03/02 04:43:51;;;;;;;34.93;13.43;;;0.20;99.90;;;;;;5228750;28;20184;-48
2022/03/02 04:46:21;;;;;;;23.27;12.93;;;0.20;99.90;;;;;;5227268;28;20188;-47
2022/03/02 04:48:52;;;;;;;31.57;13.70;;;0.20;99.90;;;;;;5229638;28;20593;-49
2022/03/02 04:51:23;;;;;;;29.60;13.80;;;0.20;99.90;;;;;;5235378;28;20239;-47
2022/03/02 04:53:53;;;;;;;23.83;14.43;;;0.20;99.90;;;;;;5229100;28;20278;-47
2022/03/02 04:56:24;;;;;;;21.50;11.80;;;0.20;99.90;;;;;;5226899;28;20183;-48
2022/03/02 04:58:54;;;;;;;30.50;13.50;;;0.20;99.90;;;;;;5220678;28;20520;-48
2022/03/02 05:01:25;;;;;;;21.20;13.27;;;0.20;99.90;;;;;;5227299;28;20730;-48
2022/03/02 05:03:56;;;;;;;22.30;13.20;;;0.20;99.90;;;;;;5228399;28;20181;-47
2022/03/02 05:06:26;;;;;;;30.73;14.90;;;0.10;99.90;;;;;;5223022;28;20196;-48
2022/03/02 05:08:58;;;;;;;26.47;14.27;;;0.20;99.90;;;;;;5227493;28;20205;-48
2022/03/02 05:11:29;;;;;;;28.07;14.87;;;0.20;99.90;;;;;;5227478;22;20235;-46
2022/03/02 05:13:59;;;;;;;30.63;14.60;;;0.20;99.90;;;;;;5225863;28;20453;-47
2022/03/02 05:16:30;;;;;;;37.57;16.30;;;0.20;99.90;;;;;;5230218;28;20186;-47
2022/03/02 05:19:00;;;;;;;32.80;15.83;;;0.20;99.90;;;;;;5226496;28;20185;-46
2022/03/02 05:21:31;;;;;;;30.97;16.10;;;0.20;99.90;;;;;;5220376;28;20216;-46
2022/03/02 05:24:02;;;;;;;26.33;14.33;;;0.20;99.90;;;;;;5228697;28;20182;-46
2022/03/02 05:26:33;;;;;;;30.00;15.47;;;0.20;99.90;;;;;;5223348;28;20199;-46
2022/03/02 05:29:04;;;;;;;35.20;16.27;;;0.20;99.90;;;;;;5227371;28;20433;-48
2022/03/02 05:31:34;;;;;;;35.17;16.83;;;0.20;99.90;;;;;;5226983;28;20462;-45
2022/03/02 05:34:06;;;;;;;34.93;18.17;;;0.20;99.90;;;;;;5227586;28;20309;-47
2022/03/02 05:36:36;;;;;;;29.73;16.83;;;0.20;99.90;;;;;;5227404;28;20581;-47
2022/03/02 05:39:07;;;;;;;31.80;17.17;;;0.10;99.90;;;;;;5222830;28;20434;-47
2022/03/02 05:41:38;;;;;;;29.17;16.57;;;0.20;99.90;;;;;;5225522;28;20264;-47
2022/03/02 05:44:09;;;;;;;28.80;17.03;;;0.10;99.90;;;;;;5227830;28;20288;-45
2022/03/02 05:46:39;;;;;;;31.90;15.63;;;0.10;99.90;;;;;;5227739;28;20465;-46
2022/03/02 05:49:10;;;;;;;30.63;15.17;;;0.20;99.90;;;;;;5224108;28;20183;-46
2022/03/02 05:51:41;;;;;;;40.43;18.83;;;0.20;99.90;;;;;;5224685;28;20207;-46
2022/03/02 05:54:12;;;;;;;27.63;16.53;;;0.20;99.90;;;;;;5226524;28;20429;-47
2022/03/02 05:56:42;;;;;;;37.43;17.67;;;0.30;99.90;;;;;;5227611;28;20441;-46
2022/03/02 05:59:14;;;;;;;30.60;16.43;;;0.30;99.90;;;;;;5224613;28;20371;-46
2022/03/02 06:01:45;;;;;;;39.50;18.03;;;0.20;99.90;;;;;;5223202;28;20215;-47
2022/03/02 06:04:15;;;;;;;47.50;19.73;;;0.30;99.90;;;;;;5224079;28;20502;-47
2022/03/02 06:06:46;;;;;;;36.10;19.60;;;0.20;99.90;;;;;;5225895;28;20186;-46
2022/03/02 06:09:16;;;;;;;37.93;18.13;;;0.30;99.90;;;;;;5226472;28;20187;-48
2022/03/02 06:11:47;;;;;;;38.00;19.10;;;0.30;99.90;;;;;;5208479;28;20222;-46
2022/03/02 06:14:18;;;;;;;32.97;18.70;;;0.30;99.90;;;;;;5209323;28;20187;-46
2022/03/02 06:16:49;;;;;;;38.73;19.60;;;0.30;99.90;;;;;;5228854;28;20187;-46
2022/03/02 06:19:19;;;;;;;33.50;19.23;;;0.30;99.90;;;;;;5221972;28;20276;-45
2022/03/02 06:21:52;;;;;;;39.40;20.23;;;0.40;99.90;;;;;;5223751;28;20200;-47
2022/03/02 06:24:22;;;;;;;38.83;19.30;;;0.40;99.90;;;;;;5227447;28;20195;-47
2022/03/02 06:26:53;;;;;;;37.80;18.97;;;0.30;99.90;;;;;;5211469;28;21773;-47
2022/03/02 06:29:24;;;;;;;46.60;20.27;;;0.50;99.90;;;;;;5221789;28;20190;-47
2022/03/02 06:31:55;;;;;;;42.53;20.53;;;0.50;99.90;;;;;;5231610;28;20260;-46
2022/03/02 06:34:26;;;;;;;39.83;20.50;;;0.50;99.90;;;;;;5215632;28;20187;-48
2022/03/02 06:36:56;;;;;;;52.60;20.77;;;0.50;99.90;;;;;;5214768;28;20638;-47
2022/03/02 06:39:27;;;;;;;40.07;20.27;;;0.50;99.90;;;;;;5211996;28;20453;-46
2022/03/02 06:42:29;;;;;;;29.60;19.43;;;0.50;99.90;;;;;;5213750;28;20215;-47
2022/03/02 06:45:12;;;;;;;43.47;21.20;;;0.50;99.90;;;;;;5215345;28;20242;-49
2022/03/02 06:47:51;;;;;;;41.03;19.80;;;0.60;99.90;;;;;;5211791;28;20897;-50
2022/03/02 06:50:25;;;;;;;39.17;19.67;;;0.60;99.90;;;;;;5214164;28;20546;-47
2022/03/02 06:53:01;;;;;;;46.40;20.83;;;0.60;99.90;;;;;;5221114;28;20494;-48
2022/03/02 06:55:31;;;;;;;54.90;22.03;;;0.70;99.90;;;;;;5236633;28;20465;-49
2022/03/02 06:58:06;;;;;;;43.33;20.17;;;0.70;99.90;;;;;;5223512;28;20441;-48
2022/03/02 07:00:39;;;;;;;42.13;21.07;;;0.70;99.90;;;;;;5219436;28;20867;-47
2022/03/02 07:03:11;;;;;;;36.53;20.30;;;0.70;99.90;;;;;;5221233;28;20849;-48
2022/03/02 07:05:41;;;;;;;44.60;20.30;;;0.80;99.90;;;;;;5223014;28;20426;-46
2022/03/02 07:08:13;;;;;;;37.20;19.97;;;0.80;99.90;;;;;;5223370;28;20487;-47
2022/03/02 07:10:43;;;;;;;42.73;20.20;;;0.80;99.90;;;;;;5220583;28;20749;-47
2022/03/02 07:13:14;;;;;;;40.73;21.00;;;0.90;99.90;;;;;;5212874;28;20441;-47
2022/03/02 07:15:45;;;;;;;40.33;19.97;;;0.90;99.90;;;;;;5217633;28;21030;-48
2022/03/02 07:18:15;;;;;;;49.07;21.83;;;0.90;99.90;;;;;;5221513;28;20182;-47
2022/03/02 07:20:47;;;;;;;42.43;20.50;;;1.00;99.90;;;;;;5220363;28;20830;-46
2022/03/02 07:23:19;;;;;;;45.80;19.40;;;1.10;99.90;;;;;;5217214;28;20191;-48
2022/03/02 07:25:50;;;;;;;42.67;21.77;;;1.20;99.90;;;;;;5214990;28;20552;-52
2022/03/02 07:28:20;;;;;;;39.43;19.30;;;1.20;99.90;;;;;;5214065;28;20437;-47
2022/03/02 07:30:53;;;;;;;38.10;18.83;;;1.20;99.90;;;;;;5217689;28;20257;-48
2022/03/02 07:33:25;;;;;;;34.53;19.13;;;1.30;99.90;;;;;;5217484;28;20194;-47
2022/03/02 07:35:57;;;;;;;39.70;20.00;;;1.50;99.90;;;;;;5216890;28;20433;-47
2022/03/02 07:38:28;;;;;;;42.53;19.30;;;1.50;99.90;;;;;;5217490;28;20429;-50
2022/03/02 07:40:58;;;;;;;46.30;20.23;;;1.70;99.90;;;;;;5220828;28;20519;-46
2022/03/02 07:43:29;;;;;;;36.93;19.23;;;1.80;99.90;;;;;;5221795;28;20271;-48
2022/03/02 07:45:59;;;;;;;44.23;20.90;;;1.80;99.90;;;;;;5219420;28;20717;-47
2022/03/02 07:48:31;;;;;;;44.60;21.30;;;1.90;99.90;;;;;;5215183;28;20274;-45
2022/03/02 07:51:05;;;;;;;41.03;20.73;;;2.00;99.90;;;;;;5201752;28;20262;-47
2022/03/02 07:53:44;;;;;;;45.77;20.27;;;2.20;99.90;;;;;;5213519;28;20447;-47
2022/03/02 07:56:15;;;;;;;46.67;20.60;;;2.20;99.90;;;;;;5221008;28;20546;-49
2022/03/02 07:58:46;;;;;;;41.77;19.67;;;2.20;99.90;;;;;;5215479;28;20445;-47
2022/03/02 08:01:20;;;;;;;42.63;20.87;;;2.40;99.90;;;;;;5223795;28;20519;-47
2022/03/02 08:03:50;;;;;;;46.20;22.57;;;2.60;99.90;;;;;;5221382;28;20191;-55
2022/03/02 08:06:21;;;;;;;40.57;20.90;;;2.90;99.90;;;;;;5225945;28;20503;-47
2022/03/02 08:08:53;;;;;;;37.70;19.03;;;3.00;99.90;;;;;;5222562;28;20187;-47
2022/03/02 08:11:25;;;;;;;44.70;21.70;;;3.10;99.70;;;;;;5224939;28;20468;-48
2022/03/02 08:13:56;;;;;;;37.30;20.07;;;3.20;99.20;;;;;;5224564;28;20518;-48
2022/03/02 08:16:28;;;;;;;45.63;20.17;;;3.40;97.60;;;;;;5221592;28;20982;-50
2022/03/02 08:19:01;;;;;;;40.70;20.57;;;3.40;96.50;;;;;;5223338;28;20498;-47
2022/03/02 08:21:38;;;;;;;42.63;19.87;;;3.60;95.30;;;;;;5221815;28;20469;-47
2022/03/02 08:24:11;;;;;;;38.00;20.47;;;3.80;94.40;;;;;;5221410;28;20439;-48
2022/03/02 08:26:48;;;;;;;37.87;20.37;;;3.90;92.60;;;;;;5223942;28;20433;-47
2022/03/02 08:29:20;;;;;;;31.70;18.50;;;4.10;92.20;;;;;;5221610;28;20429;-50
2022/03/02 08:31:50;;;;;;;41.10;20.47;;;4.40;90.40;;;;;;5223837;28;20965;-48
2022/03/02 08:34:21;;;;;;;37.07;17.60;;;4.50;84.60;;;;;;5227073;28;20516;-48
2022/03/02 08:36:53;;;;;;;39.50;20.13;;;4.60;83.30;;;;;;5223742;28;20255;-48
2022/03/02 08:39:24;;;;;;;42.17;19.57;;;4.60;79.60;;;;;;5225205;28;20183;-49
2022/03/02 08:41:55;;;;;;;40.97;20.30;;;4.60;77.60;;;;;;5226014;28;20524;-49
2022/03/02 08:44:25;;;;;;;41.00;21.70;;;4.40;77.60;;;;;;5227740;28;20433;-48
2022/03/02 08:46:58;;;;;;;46.40;19.80;;;4.50;79.60;;;;;;5218444;28;20447;-47
2022/03/02 08:49:28;;;;;;;41.90;21.50;;;4.60;78.30;;;;;;5224724;28;20193;-47
2022/03/02 08:51:59;;;;;;;40.50;21.10;;;4.80;76.90;;;;;;5224198;28;20444;-48
2022/03/02 08:54:46;;;;;;;45.27;22.13;;;5.10;72.90;;;;;;5226786;28;20195;-50
2022/03/02 08:57:18;;;;;;;36.27;19.23;;;5.10;71.70;;;;;;5223906;28;20644;-46
2022/03/02 08:59:54;;;;;;;36.77;20.00;;;5.20;69.90;;;;;;5226075;28;20441;-49
2022/03/02 09:02:27;;;;;;;39.97;20.83;;;5.10;69.30;;;;;;5226979;28;20464;-48
2022/03/02 09:05:02;;;;;;;39.63;19.33;;;4.90;67.60;;;;;;5221239;28;20449;-50
2022/03/02 09:07:33;;;;;;;34.90;18.20;;;4.60;69.00;;;;;;5223860;28;20421;-47
2022/03/02 09:10:05;;;;;;;41.43;19.20;;;4.50;69.20;;;;;;5218761;28;20492;-48
2022/03/02 09:12:41;;;;;;;32.83;18.00;;;4.50;68.70;;;;;;5223841;28;20453;-48
2022/03/02 09:15:11;;;;;;;36.80;18.07;;;4.40;67.90;;;;;;5220740;28;20539;-49
2022/03/02 09:17:42;;;;;;;38.53;18.50;;;4.50;68.50;;;;;;5221587;28;20465;-49
2022/03/02 09:20:13;;;;;;;34.00;18.47;;;4.50;69.20;;;;;;5222092;28;20678;-48
2022/03/02 09:22:44;;;;;;;50.40;17.50;;;4.50;67.90;;;;;;5225769;28;20433;-48
2022/03/02 09:25:15;;;;;;;31.93;17.67;;;4.60;65.90;;;;;;5222988;28;20812;-48
2022/03/02 09:27:46;;;;;;;33.97;17.80;;;4.70;66.00;;;;;;5225377;28;20434;-48
2022/03/02 09:30:17;;;;;;;48.93;19.40;;;4.90;66.40;;;;;;5223795;28;20268;-50
2022/03/02 09:32:52;;;;;;;39.63;18.87;;;4.80;65.60;;;;;;5226312;28;20430;-48
2022/03/02 09:35:23;;;;;;;36.30;20.03;;;4.80;65.40;;;;;;5224402;28;20179;-48
2022/03/02 09:37:56;;;;;;;34.17;19.13;;;4.80;65.60;;;;;;5220846;28;20917;-49
2022/03/02 09:40:29;;;;;;;34.20;18.20;;;4.80;65.10;;;;;;5220968;28;21216;-48
2022/03/02 09:43:07;;;;;;;36.47;18.10;;;4.80;65.90;;;;;;5224359;28;20982;-49
2022/03/02 09:45:40;;;;;;;34.33;17.03;;;4.70;63.00;;;;;;5224520;28;20534;-48
2022/03/02 09:48:31;;;;;;;40.30;16.20;;;4.70;62.50;;;;;;5224415;28;20524;-49
2022/03/02 09:51:05;;;;;;;31.83;15.70;;;4.60;60.60;;;;;;5218988;28;20823;-49
2022/03/02 09:53:36;;;;;;;27.97;15.00;;;4.60;61.20;;;;;;5222482;28;20441;-47
2022/03/02 09:56:06;;;;;;;30.63;16.10;;;4.60;59.50;;;;;;5218253;28;20533;-47
2022/03/02 09:58:38;;;;;;;30.13;15.00;;;4.60;60.30;;;;;;5221192;28;20558;-48
2022/03/02 10:01:17;;;;;;;19.70;13.03;;;4.70;60.00;;;;;;5223542;28;20279;-48
2022/03/02 10:03:50;;;;;;;22.77;13.77;;;4.90;59.10;;;;;;5219102;28;20447;-48
2022/03/02 10:06:22;;;;;;;32.13;16.40;;;5.10;56.00;;;;;;5221336;28;20441;-48
2022/03/02 10:08:54;;;;;;;29.30;16.10;;;5.30;55.50;;;;;;5221642;28;20446;-48
2022/03/02 10:11:26;;;;;;;28.17;15.00;;;5.50;55.50;;;;;;5223109;28;20976;-47
2022/03/02 10:13:57;;;;;;;27.70;15.30;;;5.50;54.20;;;;;;5222823;28;20450;-46
2022/03/02 10:16:28;;;;;;;32.07;15.10;;;5.50;54.90;;;;;;5222860;28;20459;-49
2022/03/02 10:19:00;;;;;;;30.23;15.57;;;5.80;53.90;;;;;;5218908;28;20500;-48
2022/03/02 10:21:41;;;;;;;34.87;17.70;;;6.30;52.80;;;;;;5218127;28;20815;-48
2022/03/02 10:24:17;;;;;;;24.17;14.23;;;6.30;52.00;;;;;;5221541;28;20753;-49
2022/03/02 10:26:51;;;;;;;34.03;15.77;;;6.20;50.10;;;;;;5236728;28;20928;-49
2022/03/02 10:29:40;;;;;;;26.30;14.57;;;6.20;49.60;;;;;;5219236;28;20451;-47
2022/03/02 10:32:17;;;;;;;29.30;14.90;;;6.30;49.50;;;;;;5221924;28;20454;-47
2022/03/02 10:34:49;;;;;;;26.87;14.37;;;6.40;48.90;;;;;;5201515;28;20970;-49
2022/03/02 10:37:19;;;;;;;28.53;15.40;;;6.50;48.40;;;;;;5225269;28;20435;-47
2022/03/02 10:40:17;;;;;;;22.83;14.67;;;6.40;48.00;;;;;;5217821;28;20451;-47
2022/03/02 10:42:57;;;;;;;27.57;14.70;;;6.30;48.20;;;;;;5202492;28;20261;-47
2022/03/02 10:45:31;;;;;;;27.50;13.03;;;6.20;47.80;;;;;;5235099;28;20965;-47
2022/03/02 10:48:19;;;;;;;26.97;14.40;;;6.10;47.50;;;;;;5223121;28;20521;-48
2022/03/02 10:50:54;;;;;;;25.57;13.40;;;6.10;47.60;;;;;;5218237;28;20451;-49
2022/03/02 10:53:26;;;;;;;23.10;13.27;;;6.20;47.10;;;;;;5214813;28;21382;-50
2022/03/02 10:55:58;;;;;;;24.40;13.37;;;6.30;46.80;;;;;;5221176;28;20778;-48
2022/03/02 10:58:29;;;;;;;21.60;13.70;;;6.40;46.70;;;;;;5216304;28;20444;-48
2022/03/02 11:01:01;;;;;;;24.87;14.17;;;6.20;46.30;;;;;;5217085;28;20494;-48
2022/03/02 11:03:36;;;;;;;25.60;14.40;;;5.90;46.80;;;;;;5223189;28;20779;-48
2022/03/02 11:06:07;;;;;;;24.20;12.40;;;5.70;47.60;;;;;;5221212;28;20447;-47
2022/03/02 11:08:38;;;;;;;24.77;12.53;;;5.60;47.20;;;;;;5222045;28;20438;-49
2022/03/02 11:11:10;;;;;;;22.23;12.53;;;5.40;47.00;;;;;;5226687;22;20227;-52
2022/03/02 11:13:42;;;;;;;24.50;12.70;;;5.50;47.80;;;;;;5210464;28;20435;-51
2022/03/02 11:16:19;;;;;;;22.57;13.10;;;5.50;47.20;;;;;;5215186;28;20446;-50
2022/03/02 11:18:52;;;;;;;25.13;13.30;;;5.60;46.90;;;;;;5210563;28;20443;-50
2022/03/02 11:21:29;;;;;;;34.03;14.00;;;5.70;46.80;;;;;;5217016;28;20505;-52
2022/03/02 11:24:05;;;;;;;27.13;15.60;;;5.80;47.20;;;;;;5220333;28;21070;-50
2022/03/02 11:26:38;;;;;;;25.77;13.27;;;5.80;47.60;;;;;;5219533;28;20427;-51
2022/03/02 11:29:15;;;;;;;25.20;12.10;;;6.00;48.10;;;;;;5237817;28;20423;-52
2022/03/02 11:31:51;;;;;;;24.37;12.60;;;6.10;48.30;;;;;;5221921;28;20477;-50
2022/03/02 11:34:27;;;;;;;27.80;13.50;;;6.30;47.70;;;;;;5221475;28;20463;-51
2022/03/02 11:37:02;;;;;;;27.83;15.07;;;6.40;48.00;;;;;;5223858;28;20461;-53
2022/03/02 11:39:41;;;;;;;27.10;14.93;;;6.50;46.50;;;;;;5223932;28;20798;-52
2022/03/02 11:42:11;;;;;;;28.23;12.50;;;6.50;46.10;;;;;;5223351;28;20470;-51
2022/03/02 11:44:43;;;;;;;24.37;14.10;;;6.40;44.70;;;;;;5211716;28;20454;-52
2022/03/02 11:47:16;;;;;;;25.40;13.33;;;6.40;43.90;;;;;;5221448;28;20170;-51
2022/03/02 11:49:55;;;;;;;23.27;12.70;;;6.40;44.30;;;;;;5221817;28;20484;-52
2022/03/02 11:52:29;;;;;;;23.27;12.73;;;6.50;43.70;;;;;;5223228;28;20471;-51
2022/03/02 11:55:05;;;;;;;21.10;12.90;;;6.70;43.00;;;;;;5227348;28;20428;-52
2022/03/02 11:57:48;;;;;;;22.83;12.57;;;6.70;42.80;;;;;;5226092;28;20456;-52
2022/03/02 12:00:24;;;;;;;23.90;13.07;;;6.80;43.30;;;;;;5208946;28;20448;-51
2022/03/02 12:03:01;;;;;;;22.23;11.50;;;7.00;43.40;;;;;;5224993;28;20433;-52
2022/03/02 12:05:33;;;;;;;21.90;12.10;;;7.20;41.20;;;;;;5220985;28;20969;-51
2022/03/02 12:08:11;;;;;;;27.87;13.33;;;7.20;41.30;;;;;;5220453;28;20552;-51
2022/03/02 12:10:52;;;;;;;27.97;13.73;;;7.10;41.20;;;;;;5214408;28;20464;-51
2022/03/02 12:13:23;;;;;;;19.67;12.23;;;6.90;42.30;;;;;;5223023;28;20462;-52
2022/03/02 12:15:55;;;;;;;20.77;13.20;;;6.90;42.70;;;;;;5223050;28;20425;-51
2022/03/02 12:18:25;;;;;;;27.87;12.27;;;6.90;42.00;;;;;;5218135;28;20220;-51
2022/03/02 12:20:57;;;;;;;22.23;13.50;;;6.90;42.10;;;;;;5221442;28;20461;-51
2022/03/02 12:23:30;;;;;;;38.00;15.70;;;6.90;41.70;;;;;;5218321;28;20645;-53
2022/03/02 12:26:02;;;;;;;24.27;13.13;;;7.00;41.80;;;;;;5220170;28;20436;-53
2022/03/02 12:28:32;;;;;;;28.70;13.97;;;7.10;41.50;;;;;;5221396;28;20430;-51
2022/03/02 12:31:13;;;;;;;24.20;13.50;;;7.20;41.90;;;;;;5220967;28;20464;-51
2022/03/02 12:33:44;;;;;;;28.30;13.77;;;7.40;41.90;;;;;;5223548;28;20186;-52
2022/03/02 12:36:15;;;;;;;23.50;13.50;;;7.60;41.70;;;;;;5223611;28;20432;-51
2022/03/02 12:38:45;;;;;;;23.80;14.10;;;7.60;41.50;;;;;;5222279;28;20437;-52
2022/03/02 12:41:16;;;;;;;24.57;15.50;;;7.50;41.80;;;;;;5213875;28;20214;-51
2022/03/02 12:43:47;;;;;;;27.63;14.77;;;7.40;42.00;;;;;;5215690;28;20281;-51
2022/03/02 12:46:18;;;;;;;19.00;13.03;;;7.40;41.80;;;;;;5220619;28;20738;-50
2022/03/02 12:48:51;;;;;;;29.33;14.70;;;7.50;42.10;;;;;;5223283;28;20429;-52
2022/03/02 12:51:23;;;;;;;24.53;14.50;;;7.30;41.50;;;;;;5219315;28;20457;-51
2022/03/02 12:53:54;;;;;;;25.80;14.60;;;7.20;41.60;;;;;;5218581;28;20448;-51
2022/03/02 12:56:25;;;;;;;25.10;13.53;;;7.20;41.50;;;;;;5219104;28;20444;-50
2022/03/02 12:58:55;;;;;;;28.47;13.53;;;7.20;41.20;;;;;;5217806;28;20179;-51
2022/03/02 13:01:26;;;;;;;25.93;13.60;;;7.20;40.90;;;;;;5216726;28;20203;-52